Weather reports worldwide

Advertisment
Trollenhagen, Germany (10281): temperature & dewpoint: 14.10.2018 16:00:00 - 20.10.2018 16:00:00 (CEST)Trollenhagen, Germany (10281): temperature 5cm & temperature -5cm: 14.10.2018 16:00:00 - 20.10.2018 16:00:00 (CEST)Trollenhagen, Germany (10281): temperature -20cm & temperature -100cm: 14.10.2018 16:00:00 - 20.10.2018 16:00:00 (CEST)Trollenhagen, Germany (10281): wind speed & gusts: 14.10.2018 16:00:00 - 20.10.2018 16:00:00 (CEST)Trollenhagen, Germany (10281): wind direction: 14.10.2018 16:00:00 - 20.10.2018 16:00:00 (CEST)Trollenhagen, Germany (10281): reduced air pressure: 14.10.2018 16:00:00 - 20.10.2018 16:00:00 (CEST)Trollenhagen, Germany (10281): sunshine duration: 14.10.2018 16:00:00 - 20.10.2018 16:00:00 (CEST)Trollenhagen, Germany (10281): precipitation: 14.10.2018 16:00:00 - 20.10.2018 16:00:00 (CEST)
Date & Time tt [°C] td [°C] tt 5cm [°C] tt -5cm [°C] tt -20cm [°C] tt -100cm [°C] ff [km/h] ff [kn] fx [km/h] fx [kn] dd ppp [hPa] sd [min] rr [mm]
20.10.2018 16:00:00 10,9 5,2 10,9 11,3 10,2 13,3 20 11 32 17 WSW 1027,7 1 0,0
20.10.2018 15:00:00 10,8 5,2 11,4 11,4 10,0 13,4 20 11 29 16 WSW 1027,9 1 0,0
20.10.2018 14:00:00 10,0 5,1 10,2 10,5 9,8 13,4 20 11 34 19 W 1028,2 0 0,0
20.10.2018 13:00:00 11,0 4,1 11,8 10,8 9,5 13,4 19 10 31 17 W 1028,0 3 0,0
20.10.2018 12:00:00 10,8 3,3 12,2 10,4 9,2 13,4 18 10 28 15 WSW 1028,2 2 0,0
20.10.2018 11:00:00 9,9 3,2 10,4 9,5 9,0 13,4 20 11 31 17 W 1028,1 27 0,0
20.10.2018 10:00:00 9,2 3,5 10,8 7,8 8,9 13,4 14 8 21 11 W 1027,7 60 0,0
20.10.2018 09:00:00 6,9 3,3 6,2 6,2 9,0 13,5 9 5 13 7 WSW 1027,7 33 0,0
20.10.2018 08:00:00 6,7 3,7 5,2 6,9 9,1 13,5 9 5 13 7 WSW 1026,9 0 0,0
20.10.2018 07:00:00 6,5 4,1 5,9 6,9 9,1 13,5 10 5 13 7 WSW 1026,7 0 0,0
20.10.2018 06:00:00 6,4 4,1 5,7 6,8 9,2 13,5 10 5 14 7 SW 1026,7 0 0,0
20.10.2018 05:00:00 6,7 4,3 5,4 6,9 9,2 13,5 11 6 13 7 WSW 1026,7 0 0,0
20.10.2018 04:00:00 7,0 4,9 6,4 6,9 9,2 13,5 9 5 14 8 WSW 1026,6 0 0,0
20.10.2018 03:00:00 6,8 5,2 5,9 6,8 9,3 13,5 8 4 11 6 SW 1026,5 0 0,0
20.10.2018 02:00:00 6,5 5,2 5,6 6,3 9,4 13,6 7 4 10 5 SW 1026,5 0 0,0
20.10.2018 01:00:00 6,4 5,0 2,6 5,6 9,7 13,6 6 4 9 5 WSW 1026,3 0 0,0
20.10.2018 00:00:00 6,8 4,9 1,4 5,9 9,9 13,6 6 3 9 5 WSW 1026,2 0 0,0
19.10.2018 23:00:00 5,6 3,8 0,5 6,0 10,3 13,6 5 3 8 4 WSW 1026,5 0 0,0
19.10.2018 22:00:00 5,8 4,0 1,2 6,4 10,6 13,6 8 4 10 5 NNW 1026,5 0 0,0
19.10.2018 21:00:00 7,2 4,6 1,5 7,1 10,9 13,6 7 4 11 6 NW 1026,2 0 0,0
19.10.2018 20:00:00 8,0 4,7 2,0 8,0 11,3 13,7 7 4 9 5 NW 1025,7 0 0,0
19.10.2018 19:00:00 9,4 5,5 2,8 9,0 11,5 13,7 4 2 9 5 WNW 1025,3 0 0,0
19.10.2018 18:00:00 9,8 4,7 5,3 10,8 11,5 13,7 5 3 8 4 WNW 1025,1 35 0,0
19.10.2018 17:00:00 11,9 5,2 13,9 12,5 11,4 13,7 8 4 13 7 N 1024,8 60 0,0
19.10.2018 16:00:00 12,0 5,2 14,3 12,6 11,1 13,7 8 4 22 12 NW 1025,3 17 0,0
19.10.2018 15:00:00 12,1 5,2 14,9 13,7 10,5 13,7 8 4 20 11 WNW 1025,7 29 0,0
19.10.2018 14:00:00 12,2 6,6 17,2 14,1 10,0 13,8 12 6 19 10 NW 1025,9 41 0,0
19.10.2018 13:00:00 10,9 7,0 13,0 11,7 9,5 13,8 11 6 25 14 NNW 1026,1 14 0,0
19.10.2018 12:00:00 10,6 7,7 13,8 10,9 9,0 13,8 13 7 18 10 NNW 1026,1 57 0,0
19.10.2018 11:00:00 8,6 7,4 9,7 9,4 8,7 13,8 10 5 13 7 WNW 1026,4 44 0,0
19.10.2018 10:00:00 6,3 5,8 7,2 6,9 8,6 13,8 6 4 11 6 W 1026,1 43 0,0
19.10.2018 09:00:00 4,1 3,9 4,5 5,0 8,7 13,8 5 3 7 4 WSW 1025,8 36 0,0
19.10.2018 08:00:00 3,8 3,8 0,7 4,2 8,9 13,8 4 2 6 4 WSW 1025,5 0 0,0
19.10.2018 07:00:00 3,6 3,6 0,4 4,1 9,2 13,9 4 2 8 4 WNW 1025,1 0 0,0
19.10.2018 06:00:00 2,8 2,8 0,0 4,3 9,5 13,9 4 2 7 4 W 1025,1 0 0,0
19.10.2018 05:00:00 4,1 4,1 -0,7 4,5 9,8 13,9 5 3 6 4 W 1025,0 0 0,0
19.10.2018 04:00:00 4,8 4,8 0,0 5,0 10,1 13,9 3 2 9 5 W 1024,9 0 0,0
19.10.2018 03:00:00 5,5 5,3 0,9 5,5 10,5 13,9 6 3 9 5 WNW 1024,9 0 0,0
19.10.2018 02:00:00 5,5 5,4 1,5 6,1 10,8 13,9 6 3 16 9 NW 1025,1 0 0,0
19.10.2018 01:00:00 6,3 5,4 3,6 6,9 11,1 13,9 13 7 16 9 NW 1025,2 0 0,0
19.10.2018 00:00:00 7,5 6,2 4,5 7,4 11,4 13,9 11 6 15 8 NNW 1025,1 0 0,0
18.10.2018 23:00:00 7,9 6,2 5,6 8,2 11,7 13,9 15 8 19 10 NNW 1024,7 0 0,0
18.10.2018 22:00:00 8,8 7,4 6,3 8,6 12,0 13,9 13 7 16 8 NNW 1024,4 0 0,0
18.10.2018 21:00:00 9,1 7,7 6,1 9,2 12,2 13,9 11 6 16 9 NNW 1024,1 0 0,0
18.10.2018 20:00:00 10,3 8,2 8,0 10,5 12,4 14,0 12 7 26 14 N 1023,4 0 0,0
18.10.2018 19:00:00 11,4 9,5 9,4 11,6 12,4 14,0 13 7 18 10 NNW 1023,0 0 0,0
18.10.2018 18:00:00 12,2 11,4 11,6 12,2 12,4 14,0 11 6 20 11 NW 1022,3 0 0,0
18.10.2018 17:00:00 12,4 11,5 12,0 12,5 12,3 14,0 17 9 26 14 NNW 1021,8 0 0,2
18.10.2018 16:00:00 12,7 12,0 12,5 12,7 12,2 14,0 20 11 29 16 N 1021,6 0 0,0
18.10.2018 15:00:00 12,9 12,8 12,9 12,7 12,0 14,0 20 11 28 15 NNW 1021,3 0 0,0
18.10.2018 14:00:00 13,2 13,1 13,5 12,8 11,8 14,0 14 7 21 11 NNW 1021,1 0 0,0
18.10.2018 13:00:00 12,9 12,9 13,4 12,4 11,5 14,0 12 6 17 9 WNW 1021,1 0 0,0
18.10.2018 12:00:00 12,4 12,4 13,0 11,7 11,3 14,0 10 6 18 10 NW 1020,9 0 0,0
18.10.2018 11:00:00 11,2 11,2 11,7 10,9 11,1 14,0 8 4 11 6 W 1020,8 0 0,0
18.10.2018 10:00:00 9,9 9,9 10,4 10,0 11,0 14,0 9 5 13 7 W 1020,8 0 0,0
18.10.2018 09:00:00 8,6 8,6 8,9 8,6 11,1 14,0 6 4 10 6 W 1020,4 0 0,0
18.10.2018 08:00:00 6,6 6,5 3,4 7,6 11,4 14,0 8 4 11 6 WSW 1020,2 0 0,0
18.10.2018 07:00:00 8,0 8,0 5,1 7,7 11,6 14,0 9 5 10 6 WSW 1019,5 0 0,0
18.10.2018 06:00:00 6,4 6,0 1,9 7,8 11,9 14,0 5 3 7 4 WSW 1019,5 0 0,0
18.10.2018 05:00:00 7,1 6,9 3,4 8,2 12,1 14,0 4 2 8 5 SW 1019,6 0 0,0
18.10.2018 04:00:00 7,1 6,8 4,0 8,6 12,4 14,0 4 2 5 3 S 1019,6 0 0,0
18.10.2018 03:00:00 8,0 7,3 4,4 9,0 12,7 14,0 2 1 7 4 S 1019,8 0 0,0
18.10.2018 02:00:00 7,8 6,7 4,3 9,4 13,0 14,0 3 1 6 3 W 1020,0 0 0,0
18.10.2018 01:00:00 9,4 7,3 5,0 9,9 13,4 14,0 0 0 3 2 N 1019,9 0 0,0
18.10.2018 00:00:00 10,0 7,4 5,8 10,4 13,7 14,0 0 0 4 2 N 1020,1 0 0,0
17.10.2018 23:00:00 10,0 6,9 5,4 11,1 14,0 14,0 4 2 10 5 S 1020,0 0 0,0
17.10.2018 22:00:00 11,3 7,9 7,3 11,7 14,3 14,0 2 1 9 5 WSW 1020,1 0 0,0
17.10.2018 21:00:00 12,6 7,8 8,5 12,7 14,6 14,0 4 2 11 6 SSE 1019,8 0 0,0
17.10.2018 20:00:00 15,6 8,3 10,3 13,4 14,9 14,0 8 4 10 6 SE 1019,4 0 0,0
17.10.2018 19:00:00 16,3 8,7 11,1 14,6 15,1 14,1 7 4 9 5 ESE 1019,2 0 0,0
17.10.2018 18:00:00 16,4 9,4 12,5 16,4 15,1 14,1 8 4 10 5 N 1018,9 34 0,0
17.10.2018 17:00:00 19,4 9,3 20,4 18,3 14,8 14,1 9 5 11 6 N 1018,7 60 0,0
17.10.2018 16:00:00 20,8 8,4 22,1 19,3 14,3 14,1 4 2 12 7 ESE 1018,7 60 0,0
17.10.2018 15:00:00 21,2 8,6 22,5 19,5 13,7 14,1 4 2 11 6 S 1018,8 60 0,0
17.10.2018 14:00:00 20,6 8,2 22,7 18,8 13,0 14,1 3 2 9 5 NW 1019,0 60 0,0
17.10.2018 13:00:00 19,3 8,2 21,1 17,4 12,4 14,1 3 2 9 5 S 1019,4 60 0,0
17.10.2018 12:00:00 18,0 8,5 19,1 15,3 11,8 14,1 3 2 10 5 ESE 1019,8 60 0,0
17.10.2018 11:00:00 15,8 8,0 16,8 12,9 11,5 14,1 2 1 6 3 SSE 1020,1 60 0,0
17.10.2018 10:00:00 11,6 8,7 13,3 10,4 11,5 14,1 6 3 7 4 ESE 1020,2 60 0,0
17.10.2018 09:00:00 8,0 6,7 8,2 8,5 11,7 14,1 4 2 6 4 W 1020,2 34 0,0
17.10.2018 08:00:00 7,1 6,5 3,2 8,1 11,9 14,1 3 1 6 4 ESE 1020,0 0 0,0
17.10.2018 07:00:00 6,7 6,0 3,5 8,3 12,2 14,1 3 2 8 4 WSW 1019,6 0 0,0
17.10.2018 06:00:00 7,6 6,9 4,2 8,7 12,4 14,1 6 4 8 5 SE 1019,4 0 0,0
17.10.2018 05:00:00 8,2 7,2 4,2 9,1 12,7 14,1 0 0 5 3 N 1019,5 0 0,0
17.10.2018 04:00:00 7,4 6,1 4,4 9,3 13,0 14,1 2 1 5 3 W 1019,4 0 0,0
17.10.2018 03:00:00 8,2 6,8 4,6 9,7 13,3 14,1 3 1 8 4 W 1019,6 0 0,0
17.10.2018 02:00:00 9,4 7,8 4,9 10,2 13,6 14,1 3 1 5 3 SW 1019,5 0 0,0
17.10.2018 01:00:00 9,5 7,4 5,7 10,7 13,9 14,1 4 2 6 4 SW 1019,4 0 0,0
17.10.2018 00:00:00 10,3 7,6 7,0 11,1 14,2 14,1 4 2 6 3 SSE 1019,7 0 0,0
16.10.2018 23:00:00 11,9 8,4 7,4 11,8 14,5 14,1 3 2 4 2 S 1019,8 0 0,0
16.10.2018 22:00:00 11,9 7,8 7,6 12,5 14,9 14,1 2 1 7 4 SW 1019,8 0 0,0
16.10.2018 21:00:00 11,1 6,8 8,0 13,4 15,2 14,1 6 3 14 7 SE 1019,9 0 0,0
16.10.2018 20:00:00 16,0 8,2 12,4 14,3 15,4 14,1 11 6 14 8 SE 1019,4 0 0,0
16.10.2018 19:00:00 16,6 8,5 12,2 15,3 15,6 14,1 11 6 12 7 ESE 1019,0 0 0,0
16.10.2018 18:00:00 18,6 8,4 15,1 17,2 15,6 14,1 5 3 6 3 NE 1018,5 34 0,0
16.10.2018 17:00:00 21,9 7,7 22,1 19,1 15,3 14,1 3 1 6 3 NW 1018,2 60 0,0
16.10.2018 16:00:00 22,5 7,0 24,0 20,0 14,7 14,1 3 1 9 5 WNW 1018,1 60 0,0
16.10.2018 15:00:00 22,5 7,1 23,8 20,1 14,1 14,1 4 2 14 7 WSW 1018,2 60 0,0
16.10.2018 14:00:00 21,7 7,2 24,1 19,4 13,4 14,1 9 5 15 8 WSW 1018,2 60 0,0
16.10.2018 13:00:00 20,6 7,2 22,8 17,9 12,7 14,1 4 2 11 6 S 1018,5 60 0,0
16.10.2018 12:00:00 18,8 7,1 20,3 15,8 12,2 14,1 4 2 8 4 SE 1018,5 60 0,0
16.10.2018 11:00:00 15,9 6,6 17,4 13,2 11,9 14,1 5 3 10 6 SSW 1018,4 60 0,0
16.10.2018 10:00:00 13,1 6,0 14,5 10,9 11,9 14,1 4 2 8 4 S 1018,5 60 0,0
16.10.2018 09:00:00 9,8 6,4 9,0 9,0 12,0 14,1 3 1 9 5 SW 1018,4 35 0,0
16.10.2018 08:00:00 9,3 5,2 4,4 8,5 12,3 14,1 4 2 14 7 S 1018,0 0 0,0
16.10.2018 07:00:00 8,3 4,8 5,0 8,7 12,5 14,1 5 3 11 6 SSE 1017,6 0 0,0
16.10.2018 06:00:00 8,3 4,6 4,9 9,1 12,8 14,1 3 1 11 6 S 1017,4 0 0,0
16.10.2018 05:00:00 9,9 4,9 5,5 9,5 13,1 14,1 4 2 12 6 SW 1017,0 0 0,0
16.10.2018 04:00:00 8,6 4,0 5,6 9,9 13,4 14,1 4 2 13 7 S 1017,0 0 0,0
16.10.2018 03:00:00 11,3 5,2 6,0 10,4 13,7 14,1 6 3 12 6 S 1017,0 0 0,0
16.10.2018 02:00:00 13,0 5,3 5,9 11,0 13,9 14,1 6 3 13 7 SSW 1017,1 0 0,0
16.10.2018 01:00:00 14,6 5,0 12,8 11,7 14,2 14,1 11 6 20 11 SSE 1016,4 0 0,0
16.10.2018 00:00:00 14,8 5,3 11,3 12,1 14,4 14,1 10 5 16 9 S 1016,5 0 0,0
15.10.2018 23:00:00 15,0 5,7 12,3 12,5 14,7 14,1 9 5 16 9 S 1016,6 0 0,0
15.10.2018 22:00:00 16,0 6,2 13,2 13,0 15,0 14,1 8 4 18 10 S 1016,4 0 0,0
15.10.2018 21:00:00 16,0 6,7 12,2 13,5 15,2 14,1 6 4 15 8 S 1016,4 0 0,0
15.10.2018 20:00:00 16,4 7,4 13,1 14,3 15,5 14,1 9 5 17 9 SSE 1016,4 0 0,0
15.10.2018 19:00:00 17,2 7,7 14,1 15,2 15,7 14,1 10 5 14 7 SSE 1016,0 0 0,0
15.10.2018 18:00:00 18,7 7,8 16,5 16,6 15,7 14,1 8 4 20 11 SSE 1015,5 43 0,0
15.10.2018 17:00:00 20,0 7,7 20,0 18,0 15,6 14,1 13 7 22 12 SE 1015,1 56 0,0
15.10.2018 16:00:00 20,0 7,3 18,8 18,7 15,3 14,1 13 7 24 13 SSE 1015,0 25 0,0
15.10.2018 15:00:00 20,4 7,4 20,2 19,3 14,8 14,1 13 7 21 12 SSE 1015,0 29 0,0
15.10.2018 14:00:00 20,9 7,0 22,9 19,6 14,2 14,1 15 8 23 12 SSE 1015,0 60 0,0
15.10.2018 13:00:00 20,6 6,7 22,8 18,7 13,7 14,1 8 5 22 12 S 1015,2 60 0,0
15.10.2018 12:00:00 18,5 5,8 20,6 16,8 13,2 14,1 14 7 26 14 SSW 1015,5 60 0,0
15.10.2018 11:00:00 17,3 5,6 18,6 14,7 12,9 14,1 15 8 26 14 S 1015,5 60 0,0
15.10.2018 10:00:00 15,7 5,7 16,6 12,5 12,9 14,1 10 5 25 13 S 1015,3 60 0,0
15.10.2018 09:00:00 13,6 5,5 12,7 10,8 13,0 14,1 11 6 17 9 SSE 1015,2 43 0,0
15.10.2018 08:00:00 11,9 5,2 9,6 10,4 13,2 14,1 10 5 18 10 SE 1015,2 0 0,0
15.10.2018 07:00:00 13,1 5,1 10,9 10,9 13,4 14,1 12 7 22 12 SE 1015,0 0 0,0
15.10.2018 06:00:00 13,8 5,2 11,5 11,1 13,6 14,1 13 7 22 12 SSE 1014,8 0 0,0
15.10.2018 05:00:00 12,4 5,3 9,9 11,6 13,8 14,1 14 8 24 13 ESE 1014,9 0 0,0
15.10.2018 04:00:00 15,2 5,6 13,4 12,0 14,0 14,1 18 10 27 15 SSE 1014,5 0 0,0
15.10.2018 03:00:00 15,1 6,2 13,1 12,1 14,2 14,0 14 7 22 12 SSE 1014,6 0 0,0
15.10.2018 02:00:00 16,3 6,6 14,2 12,4 14,4 14,0 15 8 23 13 SSE 1014,4 0 0,0
15.10.2018 01:00:00 16,3 7,0 13,5 12,5 14,6 14,0 9 5 20 11 S 1014,2 0 0,0
15.10.2018 00:00:00 17,3 7,2 15,1 12,9 14,8 14,0 13 7 22 12 SSE 1014,1 0 0,0
14.10.2018 23:00:00 17,0 7,5 14,5 13,0 15,1 14,0 12 7 19 10 SSE 1014,3 0 0,0
14.10.2018 22:00:00 16,2 7,7 13,1 13,3 15,3 14,0 10 5 14 8 SE 1014,3 0 0,0
14.10.2018 21:00:00 16,7 8,1 13,7 14,0 15,6 14,0 9 5 17 9 SE 1014,3 0 0,0
14.10.2018 20:00:00 16,5 8,2 12,8 14,6 15,9 14,0 9 5 13 7 ESE 1014,6 0 0,0
14.10.2018 19:00:00 18,1 8,5 14,4 16,0 16,1 14,0 9 5 16 9 SE 1014,5 0 0,0
14.10.2018 18:00:00 19,9 8,6 17,1 17,6 16,1 14,0 9 5 22 12 SE 1014,3 45 0,0
14.10.2018 17:00:00 21,9 8,7 21,7 19,1 15,8 14,0 17 9 34 18 SSE 1014,2 60 0,0
14.10.2018 16:00:00 21,9 9,0 22,7 19,7 15,4 14,0 18 10 35 19 SSE 1014,2 60 0,0

tt = temperature
td = dewpoint
tt 5cm = temperature 5cm
tt -5cm = temperature -5cm
tt -20cm = temperature -20cm
tt -100cm = temperature -100cm
ff = wind speed
fx = gusts
dd = wind direction
ppp = reduced air pressure
sd = sunshine duration
rr = precipitation

Next stations